Time;durP1;ratioP1;P1;durP2;ratioP2;P2;SDS_P1;SDS_P2;PMS_P1;PMS_P2;Temp;Humidity;BMP_temperature;BMP_pressure;BME280_temperature;BME280_humidity;BME280_pressure;Samples;Min_cycle;Max_cycle;Signal;HPM_P1;HPM_P2
2022/06/09 00:01:34;;;;;;;29.65;7.15;;;;;;;;;;5012391;28;20449;-72
2022/06/09 00:04:03;;;;;;;24.10;7.10;;;;;;;;;;5011995;28;20041;-71
2022/06/09 00:06:35;;;;;;;30.73;6.68;;;;;;;;;;5009577;28;20041;-72
2022/06/09 00:09:02;;;;;;;33.20;8.48;;;;;;;;;;5028200;28;20038;-72
2022/06/09 00:11:29;;;;;;;32.42;7.18;;;;;;;;;;5012003;28;20077;-72
2022/06/09 00:13:55;;;;;;;24.67;7.78;;;;;;;;;;5011689;28;20102;-71
2022/06/09 00:16:21;;;;;;;31.13;7.32;;;;;;;;;;5011592;28;20124;-71
2022/06/09 00:18:47;;;;;;;31.08;7.78;;;;;;;;;;4994515;28;20103;-71
2022/06/09 00:21:13;;;;;;;26.50;7.22;;;;;;;;;;5011359;28;20037;-71
2022/06/09 00:23:39;;;;;;;24.98;7.57;;;;;;;;;;5029378;28;20077;-72
2022/06/09 00:26:05;;;;;;;23.40;7.60;;;;;;;;;;5009531;28;20042;-71
2022/06/09 00:28:31;;;;;;;31.02;8.30;;;;;;;;;;5028106;28;20125;-71
2022/06/09 00:30:57;;;;;;;18.75;6.40;;;;;;;;;;5029285;28;20038;-71
2022/06/09 00:33:23;;;;;;;27.65;7.88;;;;;;;;;;5011621;28;20045;-71
2022/06/09 00:35:49;;;;;;;30.65;8.88;;;;;;;;;;5015570;28;20037;-71
2022/06/09 00:38:15;;;;;;;30.70;8.20;;;;;;;;;;5015272;28;20534;-71
2022/06/09 00:40:41;;;;;;;35.72;8.85;;;;;;;;;;5013618;28;20523;-71
2022/06/09 00:43:08;;;;;;;26.33;8.27;;;;;;;;;;5032393;28;20080;-71
2022/06/09 00:45:42;;;;;;;41.83;9.48;;;;;;;;;;4995039;28;20114;-71
2022/06/09 00:48:11;;;;;;;32.20;8.38;;;;;;;;;;5014601;28;20029;-71
2022/06/09 00:50:39;;;;;;;30.65;8.25;;;;;;;;;;5014323;28;20408;-71
2022/06/09 00:53:10;;;;;;;27.70;8.05;;;;;;;;;;5032826;28;20090;-71
2022/06/09 00:55:36;;;;;;;31.80;8.95;;;;;;;;;;5014618;28;20052;-72
2022/06/09 00:58:08;;;;;;;34.10;9.48;;;;;;;;;;5015932;28;20643;-71
2022/06/09 01:00:55;;;;;;;41.42;8.85;;;;;;;;;;5032196;28;20050;-71
2022/06/09 01:03:21;;;;;;;;;;;;;;;;;;5014541;28;20055;-72
2022/06/09 01:05:48;;;;;;;31.55;8.13;;;;;;;;;;5032650;28;19917;-71
2022/06/09 01:08:15;;;;;;;27.92;7.97;;;;;;;;;;5014906;28;20065;-71
2022/06/09 01:10:41;;;;;;;29.48;8.75;;;;;;;;;;5030360;28;20037;-71
2022/06/09 01:13:07;;;;;;;26.88;7.72;;;;;;;;;;5031935;28;20080;-71
2022/06/09 01:15:40;;;;;;;25.75;8.25;;;;;;;;;;5032379;28;20034;-71
2022/06/09 01:18:15;;;;;;;28.40;7.72;;;;;;;;;;5013211;28;20041;-71
2022/06/09 01:20:46;;;;;;;34.83;9.02;;;;;;;;;;5031676;28;20455;-71
2022/06/09 01:23:12;;;;;;;27.95;8.13;;;;;;;;;;5010886;28;20121;-71
2022/06/09 01:25:38;;;;;;;33.10;7.88;;;;;;;;;;5014171;28;20127;-71
2022/06/09 01:28:25;;;;;;;28.30;7.72;;;;;;;;;;5013990;28;20037;-71
2022/06/09 01:31:10;;;;;;;28.50;7.78;;;;;;;;;;5014439;28;20400;-71
2022/06/09 01:33:53;;;;;;;23.88;7.00;;;;;;;;;;5013308;28;20064;-71
2022/06/09 01:36:22;;;;;;;22.65;7.03;;;;;;;;;;5014083;28;20060;-71
2022/06/09 01:38:51;;;;;;;26.33;7.20;;;;;;;;;;5032054;28;20041;-71
2022/06/09 01:41:18;;;;;;;19.88;7.10;;;;;;;;;;5013897;28;20053;-71
2022/06/09 01:43:46;;;;;;;28.20;7.55;;;;;;;;;;5030843;28;20045;-71
2022/06/09 01:46:19;;;;;;;23.58;7.28;;;;;;;;;;5013991;28;20041;-71
2022/06/09 01:48:45;;;;;;;30.10;7.25;;;;;;;;;;5013839;28;20029;-71
2022/06/09 01:51:16;;;;;;;25.92;7.10;;;;;;;;;;5013489;28;20053;-71
2022/06/09 01:53:45;;;;;;;21.90;7.22;;;;;;;;;;5012089;28;20473;-71
2022/06/09 01:56:16;;;;;;;26.52;8.23;;;;;;;;;;5031396;28;20060;-71
2022/06/09 01:58:55;;;;;;;21.95;7.50;;;;;;;;;;5032878;28;20400;-71
2022/06/09 02:01:24;;;;;;;20.00;6.53;;;;;;;;;;5011661;28;20044;-72
2022/06/09 02:03:52;;;;;;;28.55;7.65;;;;;;;;;;5013455;28;20045;-71
2022/06/09 02:06:20;;;;;;;21.85;7.53;;;;;;;;;;5029729;28;20477;-72
2022/06/09 02:08:47;;;;;;;20.50;7.07;;;;;;;;;;5010661;28;20132;-71
2022/06/09 02:11:13;;;;;;;23.80;6.25;;;;;;;;;;5028362;28;20029;-72
2022/06/09 02:13:50;;;;;;;19.85;6.60;;;;;;;;;;5029211;28;20120;-72
2022/06/09 02:16:18;;;;;;;23.77;6.72;;;;;;;;;;5029426;28;20508;-72
2022/06/09 02:18:45;;;;;;;24.63;6.78;;;;;;;;;;5011841;28;20107;-72
2022/06/09 02:21:14;;;;;;;20.58;7.00;;;;;;;;;;5028487;28;20083;-72
2022/06/09 02:23:40;;;;;;;25.17;7.07;;;;;;;;;;5028931;28;20037;-72
2022/06/09 02:26:06;;;;;;;19.15;6.97;;;;;;;;;;5009469;28;20069;-72
2022/06/09 02:28:33;;;;;;;20.27;6.97;;;;;;;;;;5012076;28;20481;-72
2022/06/09 02:30:59;;;;;;;26.00;7.25;;;;;;;;;;5009910;28;20164;-72
2022/06/09 02:33:25;;;;;;;19.40;6.60;;;;;;;;;;5010295;28;20047;-72
2022/06/09 02:35:52;;;;;;;20.70;6.30;;;;;;;;;;5009783;28;20044;-71
2022/06/09 02:38:19;;;;;;;24.27;6.75;;;;;;;;;;5009771;28;20068;-72
2022/06/09 02:40:45;;;;;;;18.17;6.10;;;;;;;;;;5012421;28;20546;-71
2022/06/09 02:43:13;;;;;;;15.73;6.45;;;;;;;;;;5028250;28;20149;-71
2022/06/09 02:45:39;;;;;;;17.33;6.75;;;;;;;;;;5026775;28;20063;-71
2022/06/09 02:48:06;;;;;;;17.17;6.10;;;;;;;;;;5009651;28;20478;-72
2022/06/09 02:50:32;;;;;;;19.45;6.10;;;;;;;;;;5012431;28;20058;-71
2022/06/09 02:52:59;;;;;;;20.13;5.88;;;;;;;;;;5008668;28;20179;-71
2022/06/09 02:55:25;;;;;;;17.73;6.03;;;;;;;;;;5030168;28;20041;-72
2022/06/09 02:57:51;;;;;;;19.17;5.85;;;;;;;;;;5011851;28;20044;-72
2022/06/09 03:00:18;;;;;;;14.07;5.88;;;;;;;;;;5012845;28;20124;-71
2022/06/09 03:02:50;;;;;;;18.52;6.22;;;;;;;;;;4996316;28;20472;-71
2022/06/09 03:05:17;;;;;;;16.20;6.00;;;;;;;;;;5030275;28;20040;-71
2022/06/09 03:07:43;;;;;;;18.13;6.10;;;;;;;;;;5011744;28;20160;-71
2022/06/09 03:10:09;;;;;;;22.42;6.70;;;;;;;;;;5030439;28;20041;-71
2022/06/09 03:12:35;;;;;;;17.73;6.20;;;;;;;;;;5030234;28;20041;-71
2022/06/09 03:15:02;;;;;;;15.52;5.95;;;;;;;;;;4996057;28;20037;-71
2022/06/09 03:17:28;;;;;;;16.92;5.85;;;;;;;;;;4995808;28;20066;-71
2022/06/09 03:19:54;;;;;;;12.20;5.82;;;;;;;;;;4996143;28;20412;-71
2022/06/09 03:22:22;;;;;;;17.92;6.15;;;;;;;;;;5029994;28;20077;-71
2022/06/09 03:24:48;;;;;;;12.48;5.97;;;;;;;;;;4996516;28;20140;-71
2022/06/09 03:27:14;;;;;;;12.35;5.50;;;;;;;;;;5030105;28;20037;-71
2022/06/09 03:29:40;;;;;;;12.30;5.78;;;;;;;;;;5027972;28;20049;-71
2022/06/09 03:32:06;;;;;;;18.45;6.57;;;;;;;;;;4996314;28;20064;-71
2022/06/09 03:34:32;;;;;;;15.80;6.10;;;;;;;;;;5011650;28;20414;-71
2022/06/09 03:36:58;;;;;;;12.68;6.22;;;;;;;;;;5029405;28;20113;-71
2022/06/09 03:39:24;;;;;;;17.52;6.32;;;;;;;;;;5029335;28;20477;-72
2022/06/09 03:41:51;;;;;;;14.48;6.43;;;;;;;;;;5012125;28;20099;-71
2022/06/09 03:44:17;;;;;;;20.92;6.65;;;;;;;;;;5029694;28;20043;-71
2022/06/09 03:46:43;;;;;;;16.63;6.75;;;;;;;;;;5012273;28;20370;-71
2022/06/09 03:49:10;;;;;;;16.52;6.88;;;;;;;;;;5011650;28;20488;-71
2022/06/09 03:51:37;;;;;;;19.73;6.78;;;;;;;;;;5029803;28;20409;-71
2022/06/09 03:54:03;;;;;;;14.02;6.80;;;;;;;;;;5029204;28;20088;-71
2022/06/09 03:56:29;;;;;;;11.75;6.85;;;;;;;;;;5012082;28;20045;-71
2022/06/09 03:58:55;;;;;;;15.57;6.78;;;;;;;;;;4995940;28;20037;-72
2022/06/09 04:01:21;;;;;;;12.85;5.82;;;;;;;;;;5010153;28;20045;-71
2022/06/09 04:03:48;;;;;;;16.20;6.57;;;;;;;;;;5013041;28;20136;-71
2022/06/09 04:06:17;;;;;;;15.13;6.63;;;;;;;;;;5008934;28;20041;-71
2022/06/09 04:08:43;;;;;;;12.40;6.03;;;;;;;;;;4994973;28;20073;-71
2022/06/09 04:11:09;;;;;;;10.77;5.90;;;;;;;;;;4997075;28;20038;-71
2022/06/09 04:13:37;;;;;;;12.32;5.50;;;;;;;;;;5032420;28;20049;-71
2022/06/09 04:16:04;;;;;;;11.38;5.80;;;;;;;;;;5032056;28;20053;-72
2022/06/09 04:18:30;;;;;;;10.82;5.22;;;;;;;;;;5032024;28;20389;-71
2022/06/09 04:20:57;;;;;;;7.30;4.82;;;;;;;;;;5030039;28;20037;-71
2022/06/09 04:23:25;;;;;;;9.15;4.95;;;;;;;;;;5032318;28;20500;-72
2022/06/09 04:25:51;;;;;;;9.20;4.97;;;;;;;;;;5014688;28;20048;-72
2022/06/09 04:28:18;;;;;;;6.80;3.67;;;;;;;;;;5030903;28;20099;-72
2022/06/09 04:30:46;;;;;;;8.30;4.22;;;;;;;;;;5030136;28;20045;-71
2022/06/09 04:33:12;;;;;;;10.35;4.40;;;;;;;;;;5013651;28;20195;-71
2022/06/09 04:35:38;;;;;;;7.68;4.00;;;;;;;;;;5015653;28;20151;-72
2022/06/09 04:38:04;;;;;;;8.82;4.00;;;;;;;;;;5012509;28;20053;-72
2022/06/09 04:40:35;;;;;;;9.13;4.03;;;;;;;;;;5013429;28;20049;-72
2022/06/09 04:43:01;;;;;;;7.40;3.90;;;;;;;;;;5011540;28;20037;-71
2022/06/09 04:45:27;;;;;;;6.35;3.60;;;;;;;;;;5032027;28;20033;-71
2022/06/09 04:47:54;;;;;;;7.18;3.17;;;;;;;;;;5015313;28;20029;-71
2022/06/09 04:50:20;;;;;;;6.93;3.33;;;;;;;;;;5032652;28;20128;-72
2022/06/09 04:52:47;;;;;;;8.05;3.60;;;;;;;;;;5014943;28;20455;-72
2022/06/09 04:55:13;;;;;;;9.48;3.42;;;;;;;;;;5032676;28;20041;-72
2022/06/09 04:57:39;;;;;;;7.38;3.22;;;;;;;;;;5032315;28;20052;-72
2022/06/09 05:00:06;;;;;;;8.80;3.47;;;;;;;;;;5032418;28;20053;-72
2022/06/09 05:02:32;;;;;;;7.10;3.30;;;;;;;;;;4995476;28;20054;-72
2022/06/09 05:04:58;;;;;;;9.57;3.63;;;;;;;;;;5029209;28;20044;-72
2022/06/09 05:07:25;;;;;;;5.72;3.45;;;;;;;;;;4995596;28;20077;-72
2022/06/09 05:09:51;;;;;;;6.88;3.40;;;;;;;;;;4997014;28;20044;-72
2022/06/09 05:12:17;;;;;;;8.90;3.63;;;;;;;;;;5012625;28;20044;-72
2022/06/09 05:14:43;;;;;;;7.50;3.67;;;;;;;;;;5011650;28;20037;-72
2022/06/09 05:17:09;;;;;;;8.70;3.90;;;;;;;;;;5012043;28;20034;-73
2022/06/09 05:19:35;;;;;;;6.53;3.95;;;;;;;;;;4997843;28;20045;-72
2022/06/09 05:22:01;;;;;;;8.05;3.80;;;;;;;;;;5013475;28;20045;-73
2022/06/09 05:24:27;;;;;;;9.50;3.90;;;;;;;;;;5029394;28;20041;-72
2022/06/09 05:26:53;;;;;;;8.60;3.78;;;;;;;;;;5014339;28;20053;-72
2022/06/09 05:29:19;;;;;;;9.35;3.78;;;;;;;;;;5031394;28;20045;-72
2022/06/09 05:31:45;;;;;;;8.48;3.72;;;;;;;;;;5031002;28;20080;-72
2022/06/09 05:34:11;;;;;;;10.32;4.10;;;;;;;;;;5029789;28;20041;-73
2022/06/09 05:36:38;;;;;;;8.77;3.72;;;;;;;;;;5047754;28;20045;-73
2022/06/09 05:44:52;;;;;;;8.10;4.10;;;;;;;;;;5012089;28;20057;-73
2022/06/09 05:47:22;;;;;;;7.60;3.60;;;;;;;;;;5011411;28;20037;-73
2022/06/09 05:49:49;;;;;;;8.82;4.53;;;;;;;;;;4997826;28;20414;-73
2022/06/09 05:52:16;;;;;;;9.80;4.40;;;;;;;;;;5013348;28;20049;-73
2022/06/09 05:54:43;;;;;;;10.20;4.70;;;;;;;;;;5012704;28;20124;-73
2022/06/09 05:57:09;;;;;;;9.45;4.78;;;;;;;;;;5045244;28;20037;-72
2022/06/09 05:59:35;;;;;;;7.75;5.03;;;;;;;;;;4997528;28;20037;-73
2022/06/09 06:02:01;;;;;;;9.75;4.90;;;;;;;;;;5029226;28;20120;-72
2022/06/09 06:04:27;;;;;;;6.55;4.68;;;;;;;;;;5012783;28;20033;-72
2022/06/09 06:06:56;;;;;;;6.88;4.70;;;;;;;;;;5012184;28;20040;-72
2022/06/09 06:09:22;;;;;;;12.18;5.13;;;;;;;;;;5030554;28;20042;-73
2022/06/09 06:11:49;;;;;;;9.90;4.82;;;;;;;;;;5012558;28;20123;-73
2022/06/09 06:14:15;;;;;;;7.70;5.22;;;;;;;;;;5029363;28;20083;-74
2022/06/09 06:16:41;;;;;;;10.38;4.95;;;;;;;;;;5012175;28;20087;-74
2022/06/09 06:19:08;;;;;;;9.18;4.70;;;;;;;;;;5010026;28;20050;-74
2022/06/09 06:21:35;;;;;;;7.50;4.60;;;;;;;;;;5013182;28;20504;-74
2022/06/09 06:24:01;;;;;;;6.38;5.05;;;;;;;;;;5027743;28;20053;-73
2022/06/09 06:26:27;;;;;;;7.57;4.80;;;;;;;;;;5011681;28;20037;-74
2022/06/09 06:28:53;;;;;;;7.93;4.63;;;;;;;;;;5013480;28;20045;-73
2022/06/09 06:31:20;;;;;;;7.45;4.57;;;;;;;;;;5010923;28;20502;-73
2022/06/09 06:33:46;;;;;;;7.50;3.83;;;;;;;;;;5010810;28;20052;-74
2022/06/09 06:36:12;;;;;;;6.70;3.83;;;;;;;;;;5012077;28;20053;-74
2022/06/09 06:38:38;;;;;;;6.85;3.55;;;;;;;;;;5030195;28;20473;-74
2022/06/09 06:41:08;;;;;;;8.52;3.90;;;;;;;;;;4996463;28;20136;-74
2022/06/09 06:43:34;;;;;;;5.60;3.17;;;;;;;;;;5011932;28;20149;-74
2022/06/09 06:46:01;;;;;;;5.93;2.70;;;;;;;;;;5010298;28;22630;-74
2022/06/09 06:48:27;;;;;;;6.72;2.70;;;;;;;;;;4996127;28;20507;-74
2022/06/09 06:50:53;;;;;;;6.43;3.00;;;;;;;;;;5012588;28;20559;-74
2022/06/09 06:53:19;;;;;;;9.13;2.70;;;;;;;;;;5028678;28;20053;-74
2022/06/09 06:55:45;;;;;;;4.00;1.75;;;;;;;;;;5013095;28;20099;-74
2022/06/09 06:58:11;;;;;;;3.72;1.70;;;;;;;;;;5012113;28;20414;-74
2022/06/09 07:00:38;;;;;;;4.40;1.90;;;;;;;;;;5044043;28;20053;-74
2022/06/09 07:03:04;;;;;;;4.70;1.98;;;;;;;;;;5030561;28;20049;-74
2022/06/09 07:05:30;;;;;;;5.32;1.48;;;;;;;;;;5012584;28;20485;-74
2022/06/09 07:07:56;;;;;;;4.38;1.58;;;;;;;;;;5012206;28;20059;-75
2022/06/09 07:10:23;;;;;;;4.25;1.50;;;;;;;;;;5029984;28;20685;-74
2022/06/09 07:12:50;;;;;;;3.90;1.50;;;;;;;;;;5011996;28;20052;-75
2022/06/09 07:15:16;;;;;;;4.53;1.30;;;;;;;;;;5011188;28;20049;-75
2022/06/09 07:17:42;;;;;;;4.93;1.30;;;;;;;;;;5040543;28;20389;-74
2022/06/09 07:20:09;;;;;;;6.40;1.50;;;;;;;;;;5011081;28;20567;-74
2022/06/09 07:22:35;;;;;;;4.93;1.30;;;;;;;;;;5009193;28;20465;-74
2022/06/09 07:25:02;;;;;;;4.88;1.20;;;;;;;;;;5009269;28;20040;-74
2022/06/09 07:27:28;;;;;;;5.38;1.42;;;;;;;;;;5026655;28;20369;-74
2022/06/09 07:29:54;;;;;;;6.32;1.70;;;;;;;;;;5010630;28;20064;-74
2022/06/09 07:32:21;;;;;;;4.63;1.52;;;;;;;;;;5029452;28;20560;-75
2022/06/09 07:34:48;;;;;;;3.63;1.30;;;;;;;;;;5009279;28;20037;-74
2022/06/09 07:37:15;;;;;;;5.82;1.60;;;;;;;;;;5011627;28;20048;-75
2022/06/09 07:39:41;;;;;;;4.95;1.50;;;;;;;;;;5008534;28;20091;-75
2022/06/09 07:42:07;;;;;;;5.40;1.83;;;;;;;;;;5008364;28;20060;-75
2022/06/09 07:44:33;;;;;;;4.20;1.40;;;;;;;;;;5009941;28;20366;-74
2022/06/09 07:46:59;;;;;;;5.13;1.45;;;;;;;;;;5028460;28;20041;-74
2022/06/09 07:49:25;;;;;;;6.72;1.38;;;;;;;;;;5040450;28;20049;-74
2022/06/09 07:51:52;;;;;;;5.60;1.30;;;;;;;;;;5010144;28;20060;-74
2022/06/09 07:54:18;;;;;;;4.10;1.20;;;;;;;;;;5010074;28;20429;-75
2022/06/09 07:56:44;;;;;;;3.90;1.20;;;;;;;;;;5012604;28;20801;-76
2022/06/09 07:59:10;;;;;;;4.97;1.30;;;;;;;;;;5013730;28;20046;-74
2022/06/09 08:01:36;;;;;;;3.13;1.20;;;;;;;;;;5026578;28;20048;-73
2022/06/09 08:04:03;;;;;;;5.50;1.45;;;;;;;;;;5011912;28;20123;-73
2022/06/09 08:06:29;;;;;;;4.18;1.30;;;;;;;;;;5012036;28;20041;-74
2022/06/09 08:08:56;;;;;;;7.25;1.35;;;;;;;;;;5011970;28;20036;-74
2022/06/09 08:11:23;;;;;;;5.45;1.55;;;;;;;;;;5009885;28;20046;-74
2022/06/09 08:13:49;;;;;;;6.07;1.80;;;;;;;;;;5011902;28;20393;-74
2022/06/09 08:16:15;;;;;;;5.38;1.42;;;;;;;;;;5012268;28;20052;-71
2022/06/09 08:18:41;;;;;;;5.07;1.40;;;;;;;;;;5029485;28;20034;-72
2022/06/09 08:21:07;;;;;;;7.32;1.63;;;;;;;;;;5010733;28;20044;-75
2022/06/09 08:23:33;;;;;;;6.57;1.50;;;;;;;;;;5011232;28;20057;-75
2022/06/09 08:26:02;;;;;;;6.07;1.40;;;;;;;;;;4994944;28;20072;-74
2022/06/09 08:28:28;;;;;;;4.05;1.40;;;;;;;;;;5029075;28;20046;-74
2022/06/09 08:30:55;;;;;;;9.93;2.08;;;;;;;;;;4994386;28;20081;-74
2022/06/09 08:33:22;;;;;;;4.97;1.50;;;;;;;;;;5010337;28;20045;-75
2022/06/09 08:35:49;;;;;;;6.13;1.45;;;;;;;;;;4995388;28;20055;-75
2022/06/09 08:38:16;;;;;;;8.10;1.58;;;;;;;;;;4995529;28;20045;-74
2022/06/09 08:40:45;;;;;;;8.02;1.75;;;;;;;;;;5010842;28;20077;-74
2022/06/09 08:43:11;;;;;;;6.72;1.70;;;;;;;;;;5029051;28;20503;-74
2022/06/09 08:45:39;;;;;;;7.78;1.70;;;;;;;;;;5011429;28;20039;-74
2022/06/09 08:48:07;;;;;;;6.25;1.60;;;;;;;;;;5011951;28;20416;-74
2022/06/09 08:50:34;;;;;;;6.13;1.85;;;;;;;;;;5011206;28;20128;-74
2022/06/09 08:53:05;;;;;;;6.57;1.75;;;;;;;;;;5028609;28;20239;-74
2022/06/09 08:55:39;;;;;;;6.40;1.60;;;;;;;;;;5030275;28;20116;-74
2022/06/09 08:58:25;;;;;;;8.63;1.80;;;;;;;;;;5032812;28;20488;-74
2022/06/09 09:00:57;;;;;;;7.53;1.50;;;;;;;;;;4998496;28;20511;-74
2022/06/09 09:03:28;;;;;;;5.85;1.60;;;;;;;;;;5031277;28;20049;-74
2022/06/09 09:05:54;;;;;;;6.53;1.60;;;;;;;;;;5013800;28;20041;-74
2022/06/09 09:08:20;;;;;;;7.68;1.92;;;;;;;;;;5012091;28;20042;-74
2022/06/09 09:10:46;;;;;;;6.07;1.60;;;;;;;;;;4998319;28;20377;-74
2022/06/09 09:13:15;;;;;;;5.50;1.60;;;;;;;;;;5013558;28;20037;-74
2022/06/09 09:15:47;;;;;;;7.07;1.90;;;;;;;;;;5014206;28;20045;-74
2022/06/09 09:18:23;;;;;;;6.50;1.90;;;;;;;;;;5013638;28;20370;-74
2022/06/09 09:20:52;;;;;;;7.30;1.60;;;;;;;;;;5045183;28;20127;-74
2022/06/09 09:23:20;;;;;;;6.75;1.70;;;;;;;;;;5014441;28;20461;-74
2022/06/09 09:25:57;;;;;;;6.10;1.83;;;;;;;;;;5014538;28;20037;-74
2022/06/09 09:28:27;;;;;;;6.30;1.70;;;;;;;;;;5014211;28;20091;-74
2022/06/09 09:31:02;;;;;;;6.80;1.60;;;;;;;;;;5032269;28;20037;-74
2022/06/09 09:33:28;;;;;;;9.85;1.85;;;;;;;;;;5012009;28;20117;-74
2022/06/09 09:35:57;;;;;;;8.15;1.70;;;;;;;;;;4998337;28;20099;-74
2022/06/09 09:38:25;;;;;;;8.52;1.40;;;;;;;;;;5014836;28;20045;-74
2022/06/09 09:40:57;;;;;;;5.57;1.40;;;;;;;;;;5013342;28;20072;-74
2022/06/09 09:43:26;;;;;;;7.70;1.38;;;;;;;;;;5013132;28;20042;-74
2022/06/09 09:45:54;;;;;;;6.57;1.45;;;;;;;;;;5031387;28;20043;-74
2022/06/09 09:48:20;;;;;;;5.32;1.45;;;;;;;;;;5030291;28;20036;-74
2022/06/09 09:50:57;;;;;;;8.23;1.63;;;;;;;;;;5010082;28;20496;-74
2022/06/09 09:53:38;;;;;;;7.00;2.08;;;;;;;;;;4998046;28;20381;-74
2022/06/09 09:56:06;;;;;;;8.88;1.73;;;;;;;;;;4997971;28;20447;-73
2022/06/09 09:58:36;;;;;;;8.40;1.50;;;;;;;;;;5014062;28;20095;-74
2022/06/09 10:01:05;;;;;;;7.32;1.52;;;;;;;;;;5010649;28;20042;-74
2022/06/09 10:09:28;;;;;;;6.47;1.40;;;;;;;;;;4928341;28;20519;-73
2022/06/09 10:11:57;;;;;;;6.68;1.48;;;;;;;;;;5030797;28;20045;-73
2022/06/09 10:14:24;;;;;;;7.35;1.50;;;;;;;;;;5013541;28;20483;-74
2022/06/09 10:16:52;;;;;;;5.55;1.40;;;;;;;;;;5013345;28;20052;-74
2022/06/09 10:19:21;;;;;;;6.15;1.85;;;;;;;;;;4997201;28;20192;-73
2022/06/09 10:21:49;;;;;;;8.98;1.70;;;;;;;;;;5010181;28;20052;-74
2022/06/09 10:24:16;;;;;;;7.30;1.38;;;;;;;;;;5013396;28;20394;-74
2022/06/09 10:26:42;;;;;;;5.03;1.27;;;;;;;;;;5013406;28;20037;-73
2022/06/09 10:29:17;;;;;;;7.47;1.73;;;;;;;;;;5013368;28;20076;-74
2022/06/09 10:31:56;;;;;;;6.22;1.45;;;;;;;;;;5012807;28;20049;-74
2022/06/09 10:34:44;;;;;;;7.32;1.50;;;;;;;;;;4996999;28;20060;-74
2022/06/09 10:37:43;;;;;;;9.80;1.50;;;;;;;;;;5012169;28;20045;-74
2022/06/09 10:40:12;;;;;;;7.97;1.70;;;;;;;;;;4980182;28;20045;-74
2022/06/09 10:42:40;;;;;;;6.18;1.30;;;;;;;;;;4996402;28;20056;-74
2022/06/09 10:45:19;;;;;;;5.10;1.48;;;;;;;;;;5013261;28;20045;-74
2022/06/09 10:56:33;;;;;;;9.45;1.60;;;;;;;;;;5030407;28;20045;-74
2022/06/09 10:59:18;;;;;;;6.22;1.42;;;;;;;;;;5012975;28;20068;-74
2022/06/09 11:01:44;;;;;;;9.25;1.75;;;;;;;;;;5012211;28;20029;-74
2022/06/09 11:04:13;;;;;;;7.82;1.52;;;;;;;;;;5030409;28;20481;-74
2022/06/09 11:06:57;;;;;;;4.88;1.33;;;;;;;;;;5013360;28;20056;-74
2022/06/09 11:09:26;;;;;;;6.13;1.50;;;;;;;;;;5012718;28;20095;-74
2022/06/09 11:12:03;;;;;;;5.53;1.38;;;;;;;;;;5011446;28;20056;-74
2022/06/09 11:14:32;;;;;;;6.93;1.50;;;;;;;;;;5027616;28;20056;-74
2022/06/09 11:17:30;;;;;;;5.28;1.60;;;;;;;;;;5010678;28;20439;-74
2022/06/09 11:20:11;;;;;;;4.50;1.38;;;;;;;;;;4980675;28;20088;-74
2022/06/09 11:22:44;;;;;;;5.45;1.30;;;;;;;;;;5010329;28;20251;-74
2022/06/09 11:25:23;;;;;;;4.47;1.30;;;;;;;;;;5011438;28;20055;-74
2022/06/09 11:27:55;;;;;;;6.85;1.40;;;;;;;;;;5009692;28;20037;-74
2022/06/09 11:30:21;;;;;;;6.60;1.58;;;;;;;;;;5011220;28;20520;-74
2022/06/09 11:33:23;;;;;;;4.97;1.15;;;;;;;;;;5007375;28;20059;-74
2022/06/09 11:35:54;;;;;;;4.07;1.33;;;;;;;;;;4912611;29;20048;-73
2022/06/09 11:38:26;;;;;;;4.32;1.10;;;;;;;;;;4995959;28;20120;-74
2022/06/09 11:41:09;;;;;;;5.03;1.40;;;;;;;;;;5011008;28;20039;-74
2022/06/09 11:43:45;;;;;;;7.18;1.63;;;;;;;;;;5009236;28;20099;-74
2022/06/09 11:46:17;;;;;;;6.60;1.30;;;;;;;;;;5008208;28;20068;-74
2022/06/09 11:48:45;;;;;;;4.85;1.58;;;;;;;;;;5028652;28;20124;-74
2022/06/09 11:51:12;;;;;;;5.20;1.38;;;;;;;;;;5009319;28;20073;-74
2022/06/09 11:53:44;;;;;;;8.95;1.92;;;;;;;;;;5028784;28;20050;-75
2022/06/09 11:56:36;;;;;;;7.63;2.08;;;;;;;;;;5014500;28;20041;-74
2022/06/09 11:59:15;;;;;;;8.75;2.20;;;;;;;;;;5014513;28;20521;-74
2022/06/09 12:01:44;;;;;;;6.55;2.08;;;;;;;;;;5012796;28;20042;-74
2022/06/09 12:04:29;;;;;;;5.70;1.70;;;;;;;;;;5011301;28;20038;-74
2022/06/09 12:07:01;;;;;;;5.70;1.85;;;;;;;;;;5011109;28;20393;-74
2022/06/09 12:09:47;;;;;;;7.53;1.65;;;;;;;;;;5008578;28;20073;-74
2022/06/09 12:12:31;;;;;;;6.78;1.77;;;;;;;;;;5010762;28;20045;-75
2022/06/09 12:15:13;;;;;;;5.97;1.60;;;;;;;;;;5027364;28;20499;-74
2022/06/09 12:17:54;;;;;;;5.65;1.40;;;;;;;;;;5028974;28;20030;-75
2022/06/09 12:20:39;;;;;;;7.55;2.00;;;;;;;;;;5009022;28;20092;-75
2022/06/09 12:23:24;;;;;;;4.60;1.70;;;;;;;;;;5029229;28;20041;-75
2022/06/09 12:26:08;;;;;;;5.37;1.40;;;;;;;;;;5024769;28;20082;-74
2022/06/09 12:28:44;;;;;;;5.90;1.75;;;;;;;;;;5029927;28;20087;-75
2022/06/09 12:31:12;;;;;;;6.47;1.70;;;;;;;;;;4998363;28;20037;-74
2022/06/09 12:33:38;;;;;;;6.75;2.17;;;;;;;;;;4999246;28;20057;-74
2022/06/09 12:36:06;;;;;;;6.18;1.75;;;;;;;;;;5013851;28;20060;-74
2022/06/09 12:38:53;;;;;;;5.72;1.73;;;;;;;;;;5045939;28;20374;-74
2022/06/09 12:41:22;;;;;;;9.65;2.47;;;;;;;;;;5012614;28;20432;-74
2022/06/09 12:44:08;;;;;;;7.95;1.75;;;;;;;;;;5031601;28;20121;-74
2022/06/09 12:46:34;;;;;;;5.43;1.63;;;;;;;;;;5013541;28;20354;-74
2022/06/09 12:49:00;;;;;;;5.47;1.60;;;;;;;;;;5030014;28;20045;-74
2022/06/09 12:51:28;;;;;;;6.32;1.60;;;;;;;;;;5013183;28;20537;-74
2022/06/09 12:54:00;;;;;;;7.55;1.92;;;;;;;;;;5010173;28;20052;-74
2022/06/09 12:56:32;;;;;;;6.32;1.40;;;;;;;;;;5010889;28;20048;-73
2022/06/09 12:58:58;;;;;;;10.18;1.65;;;;;;;;;;5029394;28;20041;-74
2022/06/09 13:01:27;;;;;;;6.93;1.60;;;;;;;;;;5014417;28;20045;-74
2022/06/09 13:04:04;;;;;;;6.82;2.20;;;;;;;;;;5030782;28;20042;-74
2022/06/09 13:06:32;;;;;;;6.68;1.60;;;;;;;;;;5014110;28;20037;-74
2022/06/09 13:09:04;;;;;;;6.30;1.40;;;;;;;;;;5028095;28;20033;-74
2022/06/09 13:14:22;;;;;;;7.85;1.67;;;;;;;;;;5028871;28;20094;-74
2022/06/09 13:16:50;;;;;;;6.85;1.80;;;;;;;;;;5013988;28;20388;-74
2022/06/09 13:19:18;;;;;;;6.60;1.30;;;;;;;;;;5011481;28;20046;-74
2022/06/09 13:21:44;;;;;;;4.15;1.50;;;;;;;;;;5014287;28;20044;-74
2022/06/09 13:24:26;;;;;;;6.50;1.63;;;;;;;;;;5011123;28;20405;-74
2022/06/09 13:26:52;;;;;;;7.45;2.05;;;;;;;;;;5030092;28;20071;-74
2022/06/09 13:29:21;;;;;;;6.53;1.55;;;;;;;;;;4996093;28;20038;-74
2022/06/09 13:31:48;;;;;;;5.60;1.70;;;;;;;;;;5013647;28;20120;-73
2022/06/09 13:34:14;;;;;;;6.07;1.60;;;;;;;;;;4997046;28;20041;-74
2022/06/09 13:36:43;;;;;;;5.68;1.50;;;;;;;;;;5012828;28;20464;-74
2022/06/09 13:39:23;;;;;;;6.15;1.50;;;;;;;;;;5013189;28;20083;-73
2022/06/09 13:41:50;;;;;;;7.25;1.80;;;;;;;;;;5011657;28;20129;-74
2022/06/09 13:44:25;;;;;;;4.60;1.35;;;;;;;;;;5012568;28;20045;-74
2022/06/09 13:46:58;;;;;;;8.00;2.20;;;;;;;;;;5013140;28;20080;-74
2022/06/09 13:49:27;;;;;;;6.47;1.73;;;;;;;;;;5031217;28;20034;-74
2022/06/09 13:51:53;;;;;;;6.70;1.70;;;;;;;;;;5042568;28;20080;-74
2022/06/09 13:54:22;;;;;;;8.23;1.95;;;;;;;;;;5012202;28;20049;-74
2022/06/09 13:56:50;;;;;;;6.20;1.67;;;;;;;;;;5013165;28;20076;-73
2022/06/09 13:59:16;;;;;;;8.00;1.60;;;;;;;;;;5030038;28;20045;-73
2022/06/09 14:01:42;;;;;;;6.78;1.75;;;;;;;;;;5030978;28;20045;-75
2022/06/09 14:04:11;;;;;;;8.48;2.00;;;;;;;;;;5031620;28;20041;-73
2022/06/09 14:06:37;;;;;;;8.48;1.60;;;;;;;;;;5031287;28;20041;-73
2022/06/09 14:09:03;;;;;;;8.38;1.95;;;;;;;;;;5013228;28;20036;-73
2022/06/09 14:11:31;;;;;;;6.50;1.50;;;;;;;;;;5011932;28;20072;-74
2022/06/09 14:13:58;;;;;;;7.03;1.60;;;;;;;;;;5030680;28;20073;-73
2022/06/09 14:16:26;;;;;;;9.35;1.70;;;;;;;;;;5013107;28;20799;-73
2022/06/09 14:18:53;;;;;;;9.48;1.95;;;;;;;;;;5009904;28;20041;-73
2022/06/09 14:21:19;;;;;;;8.63;2.00;;;;;;;;;;5030316;28;20057;-72
2022/06/09 14:23:46;;;;;;;7.32;1.63;;;;;;;;;;5011806;28;20103;-72
2022/06/09 14:26:20;;;;;;;9.07;2.05;;;;;;;;;;4995935;28;20136;-73
2022/06/09 14:28:48;;;;;;;7.00;1.83;;;;;;;;;;5012217;28;20034;-73
2022/06/09 14:31:14;;;;;;;9.13;1.77;;;;;;;;;;5012904;28;20038;-73
2022/06/09 14:33:41;;;;;;;9.63;1.98;;;;;;;;;;5028158;28;20069;-73
2022/06/09 14:36:07;;;;;;;7.25;1.42;;;;;;;;;;5012850;28;20064;-73
2022/06/09 14:38:33;;;;;;;9.70;1.63;;;;;;;;;;4996527;28;20120;-73
2022/06/09 14:40:59;;;;;;;8.95;1.80;;;;;;;;;;5031156;28;20037;-73
2022/06/09 14:43:25;;;;;;;9.63;1.75;;;;;;;;;;5011751;28;20153;-73
2022/06/09 14:45:55;;;;;;;10.00;2.22;;;;;;;;;;5030971;28;20033;-73
2022/06/09 14:48:23;;;;;;;7.30;1.80;;;;;;;;;;5012785;28;20038;-73
2022/06/09 14:50:53;;;;;;;5.60;1.60;;;;;;;;;;5012480;28;20081;-74
2022/06/09 14:53:21;;;;;;;6.18;1.80;;;;;;;;;;5029404;28;20081;-72
2022/06/09 14:55:47;;;;;;;7.72;2.10;;;;;;;;;;5028636;28;20081;-74
2022/06/09 14:58:15;;;;;;;10.48;2.03;;;;;;;;;;5015050;28;20076;-73
2022/06/09 15:00:41;;;;;;;8.57;1.73;;;;;;;;;;5011723;28;20484;-73
2022/06/09 15:03:08;;;;;;;7.75;1.70;;;;;;;;;;5012894;28;20107;-73
2022/06/09 15:05:34;;;;;;;8.65;1.90;;;;;;;;;;5029176;28;20043;-73
2022/06/09 15:08:00;;;;;;;8.77;1.98;;;;;;;;;;5013190;28;20698;-73
2022/06/09 15:10:28;;;;;;;10.02;1.60;;;;;;;;;;5010778;28;20124;-73
2022/06/09 15:12:54;;;;;;;8.20;1.80;;;;;;;;;;5030270;28;20049;-73